Time;durP1;ratioP1;P1;durP2;ratioP2;P2;SDS_P1;SDS_P2;PMS_P1;PMS_P2;Temp;Humidity;BMP_temperature;BMP_pressure;BME280_temperature;BME280_humidity;BME280_pressure;Samples;Min_cycle;Max_cycle;Signal;HPM_P1;HPM_P2
2022/11/18 00:01:34;;;;;;;3.20;1.20;;;9.00;99.90;;;;;;5091785;28;20066;-60
2022/11/18 00:04:00;;;;;;;5.15;2.15;;;9.00;99.90;;;;;;5096535;28;20441;-60
2022/11/18 00:06:28;;;;;;;7.38;1.55;;;9.00;99.90;;;;;;5094232;28;20040;-60
2022/11/18 00:08:55;;;;;;;2.35;1.40;;;9.00;99.90;;;;;;5076536;28;20387;-60
2022/11/18 00:14:23;;;;;;;8.50;1.45;;;9.00;99.90;;;;;;5093854;28;20039;-60
2022/11/18 00:16:54;;;;;;;7.68;1.90;;;9.00;99.90;;;;;;5094281;28;20044;-60
2022/11/18 00:19:23;;;;;;;8.95;1.60;;;9.10;99.90;;;;;;5093206;28;20476;-60
2022/11/18 00:21:50;;;;;;;4.45;1.40;;;9.10;99.90;;;;;;5085222;28;20051;-63
2022/11/18 00:24:17;;;;;;;11.73;1.85;;;9.10;99.90;;;;;;5086818;28;20071;-61
2022/11/18 00:26:44;;;;;;;5.50;1.65;;;9.10;99.90;;;;;;5100706;28;20474;-60
2022/11/18 00:29:11;;;;;;;5.38;1.38;;;9.00;99.90;;;;;;5104295;28;20044;-60
2022/11/18 00:31:37;;;;;;;6.35;1.58;;;9.00;99.90;;;;;;5099539;28;20477;-60
2022/11/18 00:34:04;;;;;;;12.00;1.52;;;8.90;99.90;;;;;;5072169;28;20043;-60
2022/11/18 00:36:31;;;;;;;6.65;1.73;;;8.90;99.90;;;;;;5100118;28;20048;-59
2022/11/18 00:38:58;;;;;;;4.88;1.45;;;8.90;99.90;;;;;;5089019;28;20048;-61
2022/11/18 00:42:50;;;;;;;7.93;1.48;;;8.90;99.90;;;;;;5097332;28;20496;-60
2022/11/18 00:44:11;;;;;;;3.85;1.52;;;8.90;99.90;;;;;;5107530;28;20047;-59
2022/11/18 00:46:38;;;;;;;4.10;1.40;;;8.80;99.90;;;;;;5099963;28;20071;-61
2022/11/18 00:49:05;;;;;;;5.22;1.38;;;8.80;99.90;;;;;;5070726;28;20348;-63
2022/11/18 00:51:31;;;;;;;6.85;1.75;;;8.80;99.90;;;;;;5101508;28;20075;-64
2022/11/18 00:53:58;;;;;;;9.32;1.73;;;8.80;99.90;;;;;;5088857;28;20086;-61
2022/11/18 00:56:25;;;;;;;6.88;1.90;;;8.80;99.90;;;;;;5093030;28;20083;-60
2022/11/18 00:58:52;;;;;;;7.63;2.08;;;8.80;99.90;;;;;;5073007;28;20143;-59
2022/11/18 01:01:18;;;;;;;3.75;1.05;;;8.80;99.90;;;;;;5092618;28;20460;-59
2022/11/18 01:03:45;;;;;;;5.40;1.27;;;8.80;99.90;;;;;;5088873;28;20824;-60
2022/11/18 01:06:12;;;;;;;4.57;1.17;;;8.80;99.90;;;;;;5103877;28;20139;-60
2022/11/18 01:08:39;;;;;;;5.95;1.13;;;8.80;99.90;;;;;;5092685;28;20048;-60
2022/11/18 01:13:51;;;;;;;5.43;1.58;;;8.80;99.90;;;;;;5105243;28;20109;-60
2022/11/18 01:16:19;;;;;;;4.07;1.13;;;8.80;99.90;;;;;;5104383;28;20074;-59
2022/11/18 01:18:46;;;;;;;6.68;1.35;;;8.80;99.90;;;;;;5094674;28;20482;-61
2022/11/18 01:21:13;;;;;;;15.25;4.03;;;8.80;99.90;;;;;;5092424;28;20515;-60
2022/11/18 01:23:40;;;;;;;6.20;1.52;;;8.80;99.90;;;;;;5082605;28;20048;-59
2022/11/18 01:26:08;;;;;;;8.43;1.10;;;8.80;99.90;;;;;;5090915;28;20046;-59
2022/11/18 01:28:35;;;;;;;7.82;1.52;;;8.90;99.90;;;;;;5103304;28;20082;-59
2022/11/18 01:31:06;;;;;;;5.40;1.73;;;8.90;99.90;;;;;;5111528;28;20100;-60
2022/11/18 01:33:33;;;;;;;4.00;1.40;;;8.90;99.90;;;;;;5083267;28;20063;-60
2022/11/18 01:36:00;;;;;;;6.50;1.15;;;8.90;99.90;;;;;;5111138;28;20105;-60
2022/11/18 01:38:27;;;;;;;8.10;1.73;;;8.90;99.90;;;;;;5101013;28;20048;-59
2022/11/18 01:40:54;;;;;;;5.07;1.52;;;8.90;99.90;;;;;;5112304;28;20043;-59
2022/11/18 01:43:21;;;;;;;6.28;1.88;;;8.90;99.90;;;;;;5104310;28;20127;-60
2022/11/18 01:45:49;;;;;;;6.88;1.67;;;9.00;99.90;;;;;;5091937;28;20135;-60
2022/11/18 01:48:38;;;;;;;4.95;1.50;;;9.00;99.90;;;;;;5107529;28;20047;-60
2022/11/18 01:51:15;;;;;;;9.30;2.10;;;9.00;99.90;;;;;;5091933;28;20048;-60
2022/11/18 01:53:49;;;;;;;5.03;1.25;;;9.00;99.90;;;;;;5073621;28;20048;-60
2022/11/18 01:56:18;;;;;;;6.07;1.48;;;9.00;99.90;;;;;;5074197;28;20044;-59
2022/11/18 01:58:53;;;;;;;8.18;1.52;;;9.00;99.90;;;;;;5079395;28;20076;-59
2022/11/18 02:01:20;;;;;;;4.32;1.20;;;9.00;99.90;;;;;;5093426;28;20469;-59
2022/11/18 02:03:47;;;;;;;5.82;1.30;;;9.00;99.90;;;;;;5077085;28;20052;-60
2022/11/18 02:06:14;;;;;;;6.38;1.83;;;9.00;99.90;;;;;;5090604;28;20075;-60
2022/11/18 02:08:40;;;;;;;5.68;1.25;;;9.00;99.90;;;;;;5086916;28;20055;-59
2022/11/18 02:13:57;;;;;;;5.50;1.25;;;9.00;99.90;;;;;;5075476;28;20053;-60
2022/11/18 02:16:37;;;;;;;6.43;1.60;;;9.00;99.90;;;;;;5073800;28;20054;-60
2022/11/18 02:19:33;;;;;;;4.90;1.30;;;9.00;99.90;;;;;;5085138;28;20108;-60
2022/11/18 02:22:24;;;;;;;8.80;1.48;;;8.90;99.90;;;;;;5070845;28;20083;-61
2022/11/18 02:25:22;;;;;;;6.72;1.10;;;8.90;99.90;;;;;;5082210;28;20052;-61
2022/11/18 02:28:23;;;;;;;8.23;1.40;;;8.90;99.90;;;;;;5071304;28;20554;-60
2022/11/18 02:31:14;;;;;;;6.30;1.33;;;8.90;99.90;;;;;;5082347;28;20051;-60
2022/11/18 02:33:56;;;;;;;2.90;0.98;;;8.80;99.90;;;;;;5071710;28;20051;-60
2022/11/18 02:36:33;;;;;;;3.80;1.40;;;8.90;99.90;;;;;;5067736;28;20427;-60
2022/11/18 02:39:06;;;;;;;4.43;1.50;;;8.80;99.90;;;;;;5084484;28;20050;-59
2022/11/18 02:41:33;;;;;;;3.47;0.98;;;8.80;99.90;;;;;;5076193;28;20084;-60
2022/11/18 02:44:13;;;;;;;8.57;1.42;;;8.80;99.90;;;;;;5073202;28;20463;-60
2022/11/18 02:46:41;;;;;;;4.95;1.15;;;8.80;99.90;;;;;;5083767;28;20083;-61
2022/11/18 02:49:12;;;;;;;6.53;2.50;;;8.80;99.90;;;;;;5060746;28;20052;-60
2022/11/18 02:51:39;;;;;;;3.88;1.10;;;8.80;99.90;;;;;;5069247;28;20049;-60
2022/11/18 02:54:06;;;;;;;5.15;1.70;;;8.80;99.90;;;;;;5071270;28;20046;-59
2022/11/18 02:56:34;;;;;;;8.27;1.95;;;8.80;99.90;;;;;;5062691;28;20087;-60
2022/11/18 02:59:01;;;;;;;6.57;0.80;;;8.70;99.90;;;;;;5069529;28;20495;-61
2022/11/18 03:01:29;;;;;;;9.02;1.23;;;8.70;99.90;;;;;;5068009;28;20059;-60
2022/11/18 03:03:56;;;;;;;4.35;1.25;;;8.80;99.90;;;;;;5066768;28;20132;-60
2022/11/18 03:06:28;;;;;;;7.60;1.30;;;8.70;99.90;;;;;;5058976;28;20549;-60
2022/11/18 03:09:09;;;;;;;3.78;1.20;;;8.70;99.90;;;;;;5069126;28;20084;-61
2022/11/18 03:11:50;;;;;;;5.95;1.13;;;8.70;99.90;;;;;;5066229;28;20052;-60
2022/11/18 03:14:23;;;;;;;2.83;0.90;;;8.70;99.90;;;;;;5051953;28;20139;-61
2022/11/18 03:17:03;;;;;;;2.50;1.60;;;8.60;99.90;;;;;;5061015;28;20067;-60
2022/11/18 03:19:49;;;;;;;5.50;1.20;;;8.60;99.90;;;;;;5049757;28;20073;-60
2022/11/18 03:22:22;;;;;;;10.85;1.17;;;8.60;99.90;;;;;;5057285;28;20048;-59
2022/11/18 03:24:59;;;;;;;4.70;1.10;;;8.60;99.90;;;;;;5067761;28;20129;-61
2022/11/18 03:27:41;;;;;;;3.35;1.60;;;8.60;99.90;;;;;;5042106;28;20048;-60
2022/11/18 03:30:10;;;;;;;6.70;1.50;;;8.60;99.90;;;;;;5067394;28;20094;-60
2022/11/18 03:32:40;;;;;;;5.93;2.35;;;8.60;99.90;;;;;;5057126;28;20045;-59
2022/11/18 03:35:10;;;;;;;3.38;1.15;;;8.50;99.90;;;;;;5066031;28;20131;-59
2022/11/18 03:37:37;;;;;;;5.35;1.48;;;8.60;99.90;;;;;;5060559;28;20045;-59
2022/11/18 03:40:25;;;;;;;5.88;1.13;;;8.50;99.90;;;;;;5032967;28;20084;-59
2022/11/18 03:43:19;;;;;;;7.95;1.88;;;8.50;99.90;;;;;;5067133;28;20483;-59
2022/11/18 03:45:48;;;;;;;6.68;1.13;;;8.50;99.90;;;;;;5063390;28;20131;-59
2022/11/18 03:48:22;;;;;;;6.97;2.08;;;8.50;99.90;;;;;;5057652;28;20076;-60
2022/11/18 03:50:50;;;;;;;4.25;1.40;;;8.50;99.90;;;;;;5067459;28;20108;-59
2022/11/18 03:53:17;;;;;;;4.85;1.40;;;8.60;99.90;;;;;;5068025;28;20079;-59
2022/11/18 03:55:48;;;;;;;12.88;1.50;;;8.50;99.90;;;;;;5049769;28;20057;-60
2022/11/18 03:58:33;;;;;;;5.28;1.17;;;8.50;99.90;;;;;;5067801;28;20094;-59
2022/11/18 04:01:22;;;;;;;8.40;1.52;;;8.60;99.90;;;;;;5066034;28;20123;-59
2022/11/18 04:03:49;;;;;;;7.40;1.27;;;8.50;99.90;;;;;;5074493;28;20169;-59
2022/11/18 04:06:29;;;;;;;7.63;1.23;;;8.60;99.90;;;;;;5086219;28;20166;-60
2022/11/18 04:08:58;;;;;;;5.38;1.08;;;8.60;99.90;;;;;;5077710;28;20079;-60
2022/11/18 04:14:16;;;;;;;6.90;1.13;;;8.60;99.90;;;;;;5073690;28;20445;-60
2022/11/18 04:16:43;;;;;;;2.72;0.82;;;8.60;99.90;;;;;;5087298;28;20126;-60
2022/11/18 04:19:09;;;;;;;5.07;2.17;;;8.60;99.90;;;;;;5077792;28;20072;-60
2022/11/18 04:21:36;;;;;;;3.97;1.00;;;8.60;99.90;;;;;;5086683;28;20076;-60
2022/11/18 04:24:03;;;;;;;5.20;1.67;;;8.50;99.90;;;;;;5079834;28;20052;-60
2022/11/18 04:26:30;;;;;;;5.30;1.20;;;8.60;99.90;;;;;;5069286;28;20136;-60
2022/11/18 04:28:57;;;;;;;5.55;1.33;;;8.60;99.90;;;;;;5076567;28;20093;-60
2022/11/18 04:31:24;;;;;;;6.90;1.17;;;8.60;99.90;;;;;;5089101;28;20562;-60
2022/11/18 04:33:50;;;;;;;7.75;1.17;;;8.60;99.90;;;;;;5081940;28;20079;-60
2022/11/18 04:36:18;;;;;;;5.32;0.77;;;8.60;99.90;;;;;;5068599;28;20135;-60
2022/11/18 04:38:45;;;;;;;3.63;1.25;;;8.60;99.90;;;;;;5080660;28;20052;-59
2022/11/18 04:41:12;;;;;;;8.20;1.23;;;8.60;99.90;;;;;;5068237;28;20487;-60
2022/11/18 04:43:39;;;;;;;2.90;0.90;;;8.60;99.90;;;;;;5078274;28;20054;-60
2022/11/18 04:46:06;;;;;;;2.97;1.23;;;8.60;99.90;;;;;;5070585;28;20491;-59
2022/11/18 04:48:33;;;;;;;1.33;0.73;;;8.50;99.90;;;;;;5076140;28;20392;-59
2022/11/18 04:51:05;;;;;;;5.45;1.00;;;8.50;99.90;;;;;;5072725;28;20044;-59
2022/11/18 04:53:32;;;;;;;4.53;1.25;;;8.50;99.90;;;;;;5070779;28;20046;-59
2022/11/18 04:56:06;;;;;;;9.75;1.55;;;8.60;99.90;;;;;;5082541;28;20660;-59
2022/11/18 04:58:32;;;;;;;4.65;1.23;;;8.60;99.90;;;;;;5083775;28;20112;-59
2022/11/18 05:00:59;;;;;;;4.95;1.02;;;8.60;99.90;;;;;;5079379;28;20128;-59
2022/11/18 05:03:26;;;;;;;4.00;1.10;;;8.60;99.90;;;;;;5093461;28;20699;-60
2022/11/18 05:05:53;;;;;;;8.68;3.00;;;8.60;99.90;;;;;;5104813;28;20127;-59
2022/11/18 05:08:20;;;;;;;5.45;0.88;;;8.60;99.90;;;;;;5096226;28;20044;-59
2022/11/18 05:10:47;;;;;;;8.93;0.98;;;8.60;99.90;;;;;;5106347;28;20044;-59
2022/11/18 05:13:13;;;;;;;3.97;1.10;;;8.60;99.90;;;;;;5096229;28;20055;-60
2022/11/18 05:15:40;;;;;;;4.03;0.98;;;8.60;99.90;;;;;;5106349;28;20058;-60
2022/11/18 05:18:10;;;;;;;9.05;1.50;;;8.60;99.90;;;;;;5095128;28;20040;-60
2022/11/18 05:20:37;;;;;;;4.35;0.93;;;8.70;99.90;;;;;;5107520;28;20044;-60
2022/11/18 05:23:07;;;;;;;3.67;1.13;;;8.60;99.90;;;;;;5094946;28;20075;-60
2022/11/18 05:25:34;;;;;;;5.20;1.27;;;8.60;99.90;;;;;;5107800;28;20102;-60
2022/11/18 05:28:01;;;;;;;7.25;1.15;;;8.60;99.90;;;;;;5095510;28;20047;-60
2022/11/18 05:30:28;;;;;;;5.85;1.08;;;8.60;99.90;;;;;;5107853;28;20052;-60
2022/11/18 05:32:55;;;;;;;4.00;1.63;;;8.70;99.90;;;;;;5094673;28;20056;-59
2022/11/18 05:35:22;;;;;;;2.97;1.00;;;8.70;99.90;;;;;;5105023;28;20048;-60
2022/11/18 05:37:49;;;;;;;5.00;2.05;;;8.70;99.90;;;;;;5096718;28;20052;-59
2022/11/18 05:40:16;;;;;;;4.65;1.30;;;8.60;99.90;;;;;;5102467;28;20058;-59
2022/11/18 05:45:28;;;;;;;9.85;1.65;;;8.60;99.90;;;;;;5102806;28;20048;-59
2022/11/18 05:47:58;;;;;;;6.70;0.90;;;8.60;99.90;;;;;;5098946;28;20503;-59
2022/11/18 05:50:25;;;;;;;7.82;1.38;;;8.60;99.90;;;;;;5083196;28;20075;-59
2022/11/18 05:52:52;;;;;;;3.42;0.88;;;8.60;99.90;;;;;;5100883;28;20135;-59
2022/11/18 05:55:20;;;;;;;3.78;1.08;;;8.60;99.90;;;;;;5068071;28;20056;-59
2022/11/18 05:57:47;;;;;;;5.45;1.70;;;8.60;99.90;;;;;;5079916;28;20485;-60
2022/11/18 06:00:14;;;;;;;7.55;1.48;;;8.70;99.90;;;;;;5112763;28;20053;-60
2022/11/18 06:02:41;;;;;;;7.45;1.23;;;8.60;99.90;;;;;;5104251;28;20063;-60
2022/11/18 06:05:08;;;;;;;6.18;2.53;;;8.70;99.90;;;;;;5113143;28;20044;-60
2022/11/18 06:07:38;;;;;;;1.55;0.77;;;8.60;99.90;;;;;;5103613;28;20691;-59
2022/11/18 06:10:05;;;;;;;3.50;0.93;;;8.70;99.90;;;;;;5078504;28;20510;-59
2022/11/18 06:12:38;;;;;;;5.97;1.00;;;8.60;99.90;;;;;;5081712;28;20047;-60
2022/11/18 06:15:35;;;;;;;4.93;1.20;;;8.70;99.90;;;;;;5111334;28;20051;-59
2022/11/18 06:18:05;;;;;;;6.47;1.27;;;8.70;99.90;;;;;;5087582;28;20044;-59
2022/11/18 06:20:32;;;;;;;3.90;1.25;;;8.70;99.90;;;;;;5092144;28;20078;-59
2022/11/18 06:23:00;;;;;;;2.83;0.98;;;8.70;99.90;;;;;;5084431;28;20081;-59
2022/11/18 06:25:27;;;;;;;5.43;1.23;;;8.70;99.90;;;;;;5091495;28;20048;-59
2022/11/18 06:27:55;;;;;;;6.32;1.48;;;8.70;99.90;;;;;;5103243;28;20067;-59
2022/11/18 06:30:22;;;;;;;3.65;1.25;;;8.70;99.90;;;;;;5091279;28;20048;-59
2022/11/18 06:32:49;;;;;;;4.00;1.23;;;8.70;99.90;;;;;;5103440;28;20155;-60
2022/11/18 06:35:15;;;;;;;5.35;1.55;;;8.70;99.90;;;;;;5090874;28;20486;-60
2022/11/18 06:37:42;;;;;;;4.88;1.23;;;8.80;99.90;;;;;;5075993;28;20048;-59
2022/11/18 06:40:10;;;;;;;4.90;1.00;;;8.70;99.90;;;;;;5093882;28;20048;-59
2022/11/18 06:45:22;;;;;;;6.60;1.33;;;8.70;99.90;;;;;;5090914;28;20576;-59
2022/11/18 06:47:49;;;;;;;8.55;1.38;;;8.70;99.90;;;;;;5100979;28;20071;-60
2022/11/18 06:50:16;;;;;;;6.88;2.13;;;8.70;99.90;;;;;;5092953;28;20367;-59
2022/11/18 06:52:42;;;;;;;2.95;1.10;;;8.70;99.90;;;;;;5098767;28;20051;-59
2022/11/18 06:55:09;;;;;;;3.58;0.80;;;8.70;99.90;;;;;;5094651;28;20058;-58
2022/11/18 06:57:36;;;;;;;3.65;1.08;;;8.70;99.90;;;;;;5094681;28;20048;-56
2022/11/18 07:00:03;;;;;;;6.75;1.50;;;8.70;99.90;;;;;;5104134;28;20142;-59
2022/11/18 07:02:30;;;;;;;1.60;0.85;;;8.70;99.90;;;;;;5105969;28;20105;-62
2022/11/18 07:04:57;;;;;;;4.03;1.38;;;8.70;99.90;;;;;;5101415;28;20075;-59
2022/11/18 07:07:24;;;;;;;5.75;1.40;;;8.70;99.90;;;;;;5090283;28;20106;-58
2022/11/18 07:09:51;;;;;;;5.60;1.10;;;8.70;99.90;;;;;;5099113;28;20523;-59
2022/11/18 07:12:17;;;;;;;1.85;0.90;;;8.70;99.90;;;;;;5108425;28;20043;-59
2022/11/18 07:14:44;;;;;;;8.65;1.70;;;8.70;99.90;;;;;;5098027;28;20581;-59
2022/11/18 07:17:11;;;;;;;8.77;1.38;;;8.70;99.90;;;;;;5108616;28;20079;-58
2022/11/18 07:19:38;;;;;;;4.20;1.05;;;8.70;99.90;;;;;;5101639;28;20098;-60
2022/11/18 07:22:06;;;;;;;6.72;1.50;;;8.70;99.90;;;;;;5089929;28;20048;-59
2022/11/18 07:24:37;;;;;;;5.07;1.92;;;8.70;99.90;;;;;;5079167;28;20059;-57
2022/11/18 07:27:04;;;;;;;6.88;0.98;;;8.60;99.90;;;;;;5091836;28;20074;-59
2022/11/18 07:29:31;;;;;;;4.93;1.00;;;8.60;99.90;;;;;;5101138;28;20054;-58
2022/11/18 07:31:57;;;;;;;4.22;0.95;;;8.60;99.90;;;;;;5089779;28;20102;-58
2022/11/18 07:34:24;;;;;;;8.13;1.13;;;8.50;99.90;;;;;;5100313;28;20094;-58
2022/11/18 07:36:51;;;;;;;5.90;1.42;;;8.50;99.90;;;;;;5091245;28;20135;-56
2022/11/18 07:39:18;;;;;;;5.38;1.30;;;8.50;99.90;;;;;;5097749;28;20048;-58
2022/11/18 07:41:45;;;;;;;7.13;1.13;;;8.50;99.90;;;;;;5093269;28;20131;-58
2022/11/18 07:44:12;;;;;;;5.95;1.73;;;8.50;99.90;;;;;;5095545;28;20055;-59
2022/11/18 07:46:39;;;;;;;7.35;1.90;;;8.50;99.90;;;;;;5095638;28;20044;-59
2022/11/18 07:49:07;;;;;;;3.78;0.98;;;8.40;99.90;;;;;;5075282;28;20047;-59
2022/11/18 07:51:36;;;;;;;4.13;1.00;;;8.50;99.90;;;;;;5096431;28;20058;-57
2022/11/18 07:54:12;;;;;;;3.10;0.90;;;8.50;99.90;;;;;;5099873;28;20130;-55
2022/11/18 07:56:42;;;;;;;6.97;1.38;;;8.50;99.90;;;;;;5082032;28;20048;-58
2022/11/18 07:59:09;;;;;;;11.65;1.45;;;8.50;99.90;;;;;;5089673;28;20087;-57
2022/11/18 08:01:36;;;;;;;3.47;1.30;;;8.50;99.90;;;;;;5104524;28;20273;-58
2022/11/18 08:04:10;;;;;;;7.82;1.67;;;8.60;99.90;;;;;;5104669;28;20134;-55
2022/11/18 08:06:39;;;;;;;5.78;1.70;;;8.60;99.90;;;;;;5089246;28;20078;-56
2022/11/18 08:09:06;;;;;;;7.15;1.15;;;8.60;99.90;;;;;;5089631;28;20079;-57
2022/11/18 08:11:33;;;;;;;9.63;1.10;;;8.60;99.90;;;;;;5099397;28;20051;-56
2022/11/18 08:14:00;;;;;;;6.45;1.23;;;8.60;99.90;;;;;;5087062;28;20044;-58
2022/11/18 08:16:27;;;;;;;7.68;1.23;;;8.60;99.90;;;;;;5099325;28;20067;-55
2022/11/18 08:18:54;;;;;;;5.40;1.30;;;8.60;99.90;;;;;;5086632;28;20055;-55
2022/11/18 08:21:21;;;;;;;7.10;1.35;;;8.70;99.90;;;;;;5099815;28;20054;-57
2022/11/18 08:23:53;;;;;;;6.85;1.67;;;8.70;99.90;;;;;;5105992;28;20058;-57
2022/11/18 08:26:20;;;;;;;4.07;1.38;;;8.60;99.90;;;;;;5102748;28;20110;-56
2022/11/18 08:28:47;;;;;;;7.75;1.23;;;8.70;99.90;;;;;;5088224;28;20138;-56
2022/11/18 08:31:24;;;;;;;3.75;1.25;;;8.70;99.90;;;;;;5098379;28;20146;-57
2022/11/18 08:33:55;;;;;;;5.70;1.15;;;8.70;99.90;;;;;;5088609;28;20109;-57
2022/11/18 08:36:24;;;;;;;4.95;1.20;;;8.70;99.90;;;;;;5097276;28;20447;-56
2022/11/18 08:38:50;;;;;;;15.52;2.00;;;8.80;99.90;;;;;;5090107;28;20094;-56
2022/11/18 08:41:20;;;;;;;2.63;1.00;;;8.90;99.90;;;;;;5096043;28;20043;-54
2022/11/18 08:43:47;;;;;;;8.18;1.67;;;8.70;99.90;;;;;;5092169;28;20060;-58
2022/11/18 08:46:14;;;;;;;4.93;1.33;;;8.80;99.90;;;;;;5093666;28;20055;-58
2022/11/18 08:48:41;;;;;;;8.68;1.13;;;8.90;99.90;;;;;;5108052;28;20513;-66
2022/11/18 08:51:10;;;;;;;4.50;1.00;;;8.90;99.90;;;;;;5104194;28;20130;-56
2022/11/18 08:53:37;;;;;;;8.25;1.60;;;8.80;99.90;;;;;;5081532;28;20047;-56
2022/11/18 08:56:04;;;;;;;6.13;1.40;;;8.90;99.90;;;;;;5105565;28;20529;-57
2022/11/18 08:58:31;;;;;;;6.40;2.63;;;8.90;99.90;;;;;;5093395;28;20051;-57
2022/11/18 09:01:04;;;;;;;5.93;1.45;;;8.90;99.90;;;;;;5069366;28;20070;-56
2022/11/18 09:03:31;;;;;;;4.03;1.10;;;9.00;99.90;;;;;;5097227;28;20123;-61
2022/11/18 09:06:09;;;;;;;10.02;1.40;;;9.00;99.90;;;;;;5069080;28;20044;-61
2022/11/18 09:08:36;;;;;;;11.65;1.42;;;9.10;99.90;;;;;;5097415;28;20055;-56
2022/11/18 09:11:14;;;;;;;4.70;1.02;;;9.10;99.90;;;;;;5087184;28;20741;-57
2022/11/18 09:13:41;;;;;;;6.22;1.10;;;9.10;99.90;;;;;;5097226;28;20147;-54
2022/11/18 09:16:28;;;;;;;6.35;1.30;;;9.10;99.90;;;;;;5088789;28;20094;-55
2022/11/18 09:18:55;;;;;;;8.65;1.85;;;9.10;99.90;;;;;;5098913;28;20040;-56
2022/11/18 09:21:23;;;;;;;4.53;1.33;;;9.10;99.90;;;;;;5088519;28;20487;-57
2022/11/18 09:23:49;;;;;;;10.70;1.65;;;9.10;99.90;;;;;;5080934;28;20066;-57
2022/11/18 09:26:19;;;;;;;10.13;1.33;;;9.20;99.90;;;;;;5087707;28;20044;-55
2022/11/18 09:28:46;;;;;;;8.15;1.40;;;9.10;99.90;;;;;;5100183;28;20402;-55
2022/11/18 09:31:15;;;;;;;9.32;1.27;;;9.10;99.90;;;;;;5087747;28;20051;-56
2022/11/18 09:33:42;;;;;;;6.07;1.25;;;9.10;99.90;;;;;;5100041;28;20052;-57
2022/11/18 09:36:16;;;;;;;6.18;1.30;;;9.20;99.90;;;;;;5087414;28;20055;-58
2022/11/18 09:38:43;;;;;;;10.77;2.38;;;9.20;99.90;;;;;;5099758;28;20498;-56
2022/11/18 09:41:17;;;;;;;;;;;9.30;99.90;;;;;;5071440;28;20127;-57
2022/11/18 09:44:12;;;;;;;8.60;2.03;;;9.30;99.90;;;;;;5098260;28;19920;-56
2022/11/18 09:46:47;;;;;;;7.45;1.48;;;9.30;99.90;;;;;;5088938;28;20127;-51
2022/11/18 09:49:16;;;;;;;8.57;1.45;;;9.40;99.90;;;;;;5096631;28;20062;-56
2022/11/18 09:51:45;;;;;;;6.22;1.45;;;9.40;99.90;;;;;;5093297;28;20052;-56
2022/11/18 09:54:23;;;;;;;9.98;1.70;;;9.40;99.90;;;;;;5080849;28;20127;-56
2022/11/18 09:56:51;;;;;;;10.75;2.92;;;9.40;99.90;;;;;;5074692;28;20052;-57
2022/11/18 09:59:20;;;;;;;13.27;1.95;;;9.50;99.90;;;;;;5107327;28;20108;-55
2022/11/18 10:01:51;;;;;;;4.00;1.20;;;9.50;99.90;;;;;;5073043;28;20052;-57
2022/11/18 10:04:19;;;;;;;14.15;1.70;;;9.60;99.90;;;;;;5060125;28;20143;-54
2022/11/18 10:06:47;;;;;;;5.88;1.60;;;9.60;99.90;;;;;;5075266;28;20155;-55
2022/11/18 10:09:19;;;;;;;6.63;1.58;;;9.60;99.90;;;;;;5081101;28;20075;-57
2022/11/18 10:11:57;;;;;;;8.25;1.52;;;9.70;99.90;;;;;;5094906;28;20048;-52
2022/11/18 10:14:51;;;;;;;8.40;1.38;;;9.70;99.90;;;;;;5080880;28;20075;-54
2022/11/18 10:17:18;;;;;;;7.43;2.67;;;9.70;99.90;;;;;;5075116;28;20052;-55
2022/11/18 10:20:07;;;;;;;5.75;1.60;;;9.80;99.90;;;;;;5100299;28;20439;-58
2022/11/18 10:22:53;;;;;;;6.15;1.38;;;9.80;99.90;;;;;;5075075;28;20048;-57
2022/11/18 10:25:20;;;;;;;8.95;1.52;;;9.90;99.90;;;;;;5103392;28;20491;-57
2022/11/18 10:27:48;;;;;;;5.55;1.58;;;10.00;99.90;;;;;;5068278;28;20047;-57
2022/11/18 10:30:23;;;;;;;10.18;2.03;;;10.00;99.90;;;;;;5102496;28;20052;-58
2022/11/18 10:33:00;;;;;;;7.38;1.45;;;10.10;99.90;;;;;;5091372;28;20349;-56
2022/11/18 10:35:28;;;;;;;10.15;1.35;;;10.10;99.90;;;;;;5083554;28;20475;-57
2022/11/18 10:38:02;;;;;;;8.13;1.17;;;10.10;99.90;;;;;;5091852;28;20048;-58
2022/11/18 10:40:51;;;;;;;5.72;1.50;;;10.10;99.90;;;;;;5083682;28;20092;-57
2022/11/18 10:43:42;;;;;;;5.40;1.30;;;10.20;99.90;;;;;;5073828;28;20495;-57
2022/11/18 10:46:26;;;;;;;9.30;1.42;;;10.20;99.90;;;;;;5102739;28;20108;-57
2022/11/18 10:49:08;;;;;;;7.70;1.25;;;10.20;99.90;;;;;;5072274;28;20044;-56
2022/11/18 10:51:39;;;;;;;4.32;1.23;;;10.20;99.90;;;;;;5102673;28;20044;-57
2022/11/18 10:54:07;;;;;;;7.20;1.60;;;10.30;99.90;;;;;;5090105;28;20483;-56
2022/11/18 10:56:54;;;;;;;6.35;1.55;;;10.30;99.90;;;;;;5102358;28;20094;-54
2022/11/18 10:59:31;;;;;;;7.70;1.50;;;10.40;99.90;;;;;;5074892;28;20081;-56
2022/11/18 11:01:58;;;;;;;;;;;10.40;99.90;;;;;;5102772;28;20052;-55
2022/11/18 11:04:31;;;;;;;8.45;1.23;;;10.40;99.90;;;;;;5072769;28;20240;-56
2022/11/18 11:06:58;;;;;;;5.65;1.38;;;10.50;99.90;;;;;;5102379;28;20075;-56
2022/11/18 11:09:29;;;;;;;11.23;1.83;;;10.50;99.90;;;;;;5089805;28;20499;-56
2022/11/18 11:12:15;;;;;;;11.50;2.60;;;10.50;99.90;;;;;;5084972;28;20130;-58
2022/11/18 11:14:53;;;;;;;7.97;1.55;;;10.60;99.90;;;;;;5071689;28;20080;-56
2022/11/18 11:18:40;;;;;;;4.60;1.48;;;10.60;99.90;;;;;;5102148;28;20499;-57
2022/11/18 11:20:35;;;;;;;8.40;1.33;;;10.70;99.90;;;;;;5090688;28;20469;-59
2022/11/18 11:23:09;;;;;;;6.63;1.23;;;10.70;99.90;;;;;;5101174;28;20094;-54
2022/11/18 11:25:53;;;;;;;10.07;1.40;;;10.80;99.90;;;;;;5072926;28;20063;-56
2022/11/18 11:29:09;;;;;;;6.07;1.35;;;10.70;99.90;;;;;;5064596;28;20048;-55
2022/11/18 11:31:52;;;;;;;6.18;1.20;;;10.80;99.90;;;;;;5078601;28;20044;-57
2022/11/18 11:35:10;;;;;;;14.75;2.20;;;10.90;99.90;;;;;;5104186;28;20062;-54
2022/11/18 11:37:54;;;;;;;3.25;0.95;;;11.00;99.90;;;;;;5041339;28;20090;-58
2022/11/18 11:40:40;;;;;;;6.60;1.40;;;11.00;99.90;;;;;;5071412;28;20059;-57
2022/11/18 11:43:18;;;;;;;5.82;1.83;;;11.00;99.90;;;;;;5077259;28;20050;-58
2022/11/18 11:46:23;;;;;;;5.72;1.40;;;11.10;99.90;;;;;;5109415;28;20043;-57
2022/11/18 11:49:15;;;;;;;4.43;1.33;;;11.10;99.90;;;;;;5097909;28;20263;-57
2022/11/18 11:52:08;;;;;;;6.82;1.40;;;11.20;99.90;;;;;;5091985;28;20062;-55
2022/11/18 11:55:13;;;;;;;5.80;1.02;;;11.30;99.90;;;;;;5095646;28;20130;-56
2022/11/18 11:58:19;;;;;;;8.10;1.88;;;11.30;99.90;;;;;;5001495;28;20048;-56
2022/11/18 12:00:51;;;;;;;6.60;1.83;;;11.30;99.90;;;;;;5089392;28;20051;-60
2022/11/18 12:03:52;;;;;;;8.05;1.70;;;11.30;99.90;;;;;;5069128;28;20460;-57
2022/11/18 12:06:19;;;;;;;8.25;1.70;;;11.30;99.90;;;;;;5070508;28;20082;-55
2022/11/18 12:09:10;;;;;;;12.60;4.05;;;11.30;99.90;;;;;;5101800;28;20130;-57
2022/11/18 12:11:42;;;;;;;11.65;2.20;;;11.30;99.90;;;;;;5088051;28;20101;-56
2022/11/18 12:14:41;;;;;;;13.93;2.28;;;11.30;99.90;;;;;;5083152;28;20074;-56
2022/11/18 12:17:11;;;;;;;8.25;3.03;;;11.40;99.90;;;;;;5088371;28;20048;-55
2022/11/18 12:19:38;;;;;;;3.55;1.73;;;11.50;99.90;;;;;;5078536;28;20038;-56
2022/11/18 12:22:05;;;;;;;3.92;1.48;;;11.50;99.90;;;;;;5090794;28;20082;-57
2022/11/18 12:24:37;;;;;;;8.82;2.70;;;11.50;99.90;;;;;;5095262;28;20071;-57
2022/11/18 12:27:05;;;;;;;11.02;4.85;;;11.60;99.90;;;;;;5108707;28;20131;-57
2022/11/18 12:29:37;;;;;;;8.15;3.03;;;11.50;99.90;;;;;;5095631;28;20052;-56
2022/11/18 12:32:21;;;;;;;3.92;1.25;;;11.50;99.90;;;;;;5090922;28;20047;-53
2022/11/18 12:34:48;;;;;;;5.65;2.40;;;11.50;99.90;;;;;;5095153;28;20052;-57
2022/11/18 12:37:24;;;;;;;4.72;1.58;;;11.50;99.90;;;;;;5073256;28;20457;-56
2022/11/18 12:39:57;;;;;;;9.00;4.32;;;11.50;99.90;;;;;;5095246;28;20075;-58
2022/11/18 12:45:39;;;;;;;5.13;1.40;;;11.70;99.90;;;;;;5095506;28;20280;-56
2022/11/18 12:48:26;;;;;;;5.97;2.00;;;11.70;99.90;;;;;;5108074;28;20047;-57
2022/11/18 12:50:55;;;;;;;10.57;3.63;;;11.70;99.90;;;;;;5079189;28;20035;-57
2022/11/18 12:53:47;;;;;;;6.82;1.80;;;11.70;99.90;;;;;;5089675;28;20090;-57
2022/11/18 12:56:17;;;;;;;4.53;1.50;;;11.80;99.90;;;;;;5099179;28;20197;-55
2022/11/18 12:58:44;;;;;;;13.10;3.53;;;11.90;99.90;;;;;;5084855;28;20123;-52
2022/11/18 13:01:12;;;;;;;7.38;2.25;;;12.00;99.90;;;;;;5096970;28;20058;-54
2022/11/18 13:03:39;;;;;;;7.47;2.47;;;12.20;99.90;;;;;;5107726;28;20154;-54
2022/11/18 13:06:21;;;;;;;5.65;1.08;;;12.20;99.90;;;;;;5095248;28;20522;-55
2022/11/18 13:08:56;;;;;;;12.10;1.52;;;12.10;99.90;;;;;;5108071;28;20073;-52
2022/11/18 13:20:28;;;;;;;6.47;1.10;;;12.20;99.90;;;;;;5092765;28;20051;-56
2022/11/18 13:25:54;;;;;;;3.40;0.65;;;12.10;99.90;;;;;;5100452;28;20049;-54
2022/11/18 13:28:27;;;;;;;12.05;2.28;;;12.10;99.90;;;;;;5077115;28;20048;-56
2022/11/18 13:31:22;;;;;;;5.72;1.52;;;12.00;99.90;;;;;;5095574;28;20090;-55
2022/11/18 13:33:49;;;;;;;5.55;1.83;;;12.00;99.90;;;;;;5093565;28;20051;-53
2022/11/18 13:36:17;;;;;;;5.50;1.48;;;12.00;99.90;;;;;;5084034;28;20402;-56
2022/11/18 13:38:56;;;;;;;6.03;1.88;;;12.00;99.90;;;;;;5090642;28;20050;-55
2022/11/18 13:41:31;;;;;;;3.03;1.05;;;12.00;99.90;;;;;;5084458;28;20474;-54
2022/11/18 13:44:15;;;;;;;7.20;1.52;;;12.10;99.90;;;;;;5092189;28;20045;-54
2022/11/18 13:46:42;;;;;;;4.35;1.17;;;12.10;99.90;;;;;;5083069;28;20050;-50
2022/11/18 13:49:15;;;;;;;3.28;1.08;;;12.10;99.90;;;;;;5074394;28;20047;-53
2022/11/18 13:51:42;;;;;;;15.52;1.30;;;12.00;99.90;;;;;;5085211;28;20129;-54
2022/11/18 13:54:11;;;;;;;13.50;1.80;;;12.00;99.90;;;;;;5068653;28;20425;-54